createdAt,value
2019-04-20T00:02:15.930Z,52.80
2019-04-20T00:04:41.355Z,53.30
2019-04-20T00:07:12.252Z,53.70
2019-04-20T00:09:45.423Z,53.70
2019-04-20T00:12:18.946Z,53.40
2019-04-20T00:14:42.378Z,53.50
2019-04-20T00:17:11.671Z,53.30
2019-04-20T00:19:45.380Z,53.40
2019-04-20T00:22:33.123Z,53.60
2019-04-20T00:25:17.619Z,53.70
2019-04-20T00:28:19.466Z,53.00
2019-04-20T00:30:55.736Z,53.10
2019-04-20T00:33:14.816Z,54.00
2019-04-20T00:35:35.815Z,53.50
2019-04-20T00:38:05.651Z,54.00
2019-04-20T00:40:35.618Z,53.80
2019-04-20T00:43:04.758Z,53.70
2019-04-20T00:45:36.227Z,54.00
2019-04-20T00:48:11.995Z,54.10
2019-04-20T00:50:52.561Z,54.00
2019-04-20T00:53:14.782Z,54.20
2019-04-20T00:55:36.013Z,54.50
2019-04-20T00:58:11.731Z,55.10
2019-04-20T01:01:00.181Z,54.80
2019-04-20T01:03:20.731Z,55.30
2019-04-20T01:06:08.292Z,55.50
2019-04-20T01:08:25.488Z,55.40
2019-04-20T01:10:57.378Z,55.20
2019-04-20T01:13:26.690Z,55.70
2019-04-20T01:16:03.288Z,55.40
2019-04-20T01:18:24.870Z,55.80
2019-04-20T01:20:53.680Z,55.40
2019-04-20T01:23:24.363Z,55.50
2019-04-20T01:26:01.219Z,55.60
2019-04-20T01:28:39.947Z,55.80
2019-04-20T01:31:06.434Z,55.30
2019-04-20T01:33:39.483Z,55.20
2019-04-20T01:36:09.040Z,55.50
2019-04-20T01:38:40.046Z,55.60
2019-04-20T01:40:55.030Z,55.60
2019-04-20T01:43:29.056Z,56.10
2019-04-20T01:46:05.086Z,55.90
2019-04-20T01:48:33.653Z,55.60
2019-04-20T01:51:07.172Z,56.20
2019-04-20T01:53:55.725Z,56.20
2019-04-20T01:56:18.136Z,56.40
2019-04-20T01:58:58.278Z,56.10
2019-04-20T02:01:33.598Z,56.40
2019-04-20T02:04:04.645Z,56.30
2019-04-20T02:06:39.902Z,56.40
2019-04-20T02:09:14.765Z,56.40
2019-04-20T02:11:41.362Z,57.00
2019-04-20T02:14:10.359Z,56.80
2019-04-20T02:16:45.241Z,57.20
2019-04-20T02:19:23.003Z,56.80
2019-04-20T02:21:55.923Z,56.70
2019-04-20T02:24:11.010Z,56.90
2019-04-20T02:26:39.262Z,56.90
2019-04-20T02:29:30.606Z,57.20
2019-04-20T02:32:19.824Z,57.40
2019-04-20T02:39:48.985Z,56.80
2019-04-20T02:42:28.124Z,56.70
2019-04-20T02:52:21.482Z,57.10
2019-04-20T02:54:47.242Z,56.80
2019-04-20T03:00:03.273Z,58.20
2019-04-20T03:02:04.174Z,57.70
2019-04-20T03:04:25.771Z,58.00
2019-04-20T03:07:04.142Z,58.30
2019-04-20T03:09:36.414Z,58.10
2019-04-20T03:12:08.027Z,58.00
2019-04-20T03:14:30.393Z,58.30
2019-04-20T03:17:10.457Z,58.80
2019-04-20T03:19:31.379Z,58.90
2019-04-20T03:22:09.245Z,58.60
2019-04-20T03:24:46.866Z,58.00
2019-04-20T03:27:12.399Z,58.50
2019-04-20T03:29:56.216Z,59.20
2019-04-20T03:35:08.117Z,60.60
2019-04-20T03:37:30.677Z,60.50
2019-04-20T03:39:55.547Z,60.30
2019-04-20T03:42:11.153Z,60.00
2019-04-20T03:44:50.491Z,59.90
2019-04-20T03:47:13.682Z,59.70
2019-04-20T03:50:00.953Z,60.10
2019-04-20T03:52:36.568Z,60.00
2019-04-20T03:55:26.343Z,59.90
2019-04-20T03:58:08.797Z,60.10
2019-04-20T04:00:48.416Z,60.10
2019-04-20T04:03:39.132Z,60.20
2019-04-20T04:05:55.552Z,60.90
2019-04-20T04:08:24.765Z,61.60
2019-04-20T04:11:06.651Z,61.70
2019-04-20T04:13:18.833Z,61.80
2019-04-20T04:15:52.216Z,61.70
2019-04-20T04:18:28.001Z,61.40
2019-04-20T04:20:59.082Z,60.70
2019-04-20T04:23:38.216Z,59.80
2019-04-20T04:28:36.958Z,60.30
2019-04-20T04:31:12.019Z,60.60
2019-04-20T04:36:10.115Z,60.60
2019-04-20T04:41:19.978Z,60.60
2019-04-20T04:43:39.999Z,60.90
2019-04-20T04:45:55.534Z,61.80
2019-04-20T04:48:31.296Z,62.10
2019-04-20T04:51:02.456Z,61.80
2019-04-20T04:53:38.886Z,61.40
2019-04-20T04:56:03.145Z,62.10
2019-04-20T04:58:25.694Z,61.90
2019-04-20T05:01:03.761Z,62.30
2019-04-20T05:03:44.960Z,62.00
2019-04-20T05:06:16.796Z,62.20
2019-04-20T05:08:34.452Z,62.00
2019-04-20T05:10:58.340Z,62.00
2019-04-20T05:13:37.613Z,61.70
2019-04-20T05:16:08.118Z,61.50
2019-04-20T05:18:55.458Z,61.40
2019-04-20T05:21:20.763Z,61.30
2019-04-20T05:23:43.102Z,61.80
2019-04-20T05:26:31.071Z,61.90
2019-04-20T05:28:52.748Z,62.90
2019-04-20T05:31:13.028Z,62.60
2019-04-20T05:34:03.526Z,63.30
2019-04-20T05:36:29.620Z,64.50
2019-04-20T05:39:13.149Z,64.80
2019-04-20T05:41:32.851Z,65.60
2019-04-20T05:44:03.010Z,65.00
2019-04-20T05:46:32.098Z,65.40
2019-04-20T05:49:11.790Z,63.70
2019-04-20T05:51:41.006Z,62.50
2019-04-20T05:54:11.950Z,62.10
2019-04-20T05:56:40.305Z,60.10
2019-04-20T05:59:09.140Z,59.60
2019-04-20T06:01:39.694Z,59.50
2019-04-20T06:04:02.537Z,58.70
2019-04-20T06:06:37.562Z,58.60
2019-04-20T06:09:12.981Z,57.50
2019-04-20T06:11:52.365Z,57.50
2019-04-20T06:14:15.184Z,56.70
2019-04-20T06:17:02.991Z,57.00
2019-04-20T06:19:36.922Z,57.00
2019-04-20T06:22:11.382Z,55.90
2019-04-20T06:24:49.139Z,55.20
2019-04-20T06:27:21.517Z,55.20
2019-04-20T06:29:51.350Z,54.60
2019-04-20T06:32:27.092Z,53.80
2019-04-20T06:34:53.543Z,54.80
2019-04-20T06:37:23.415Z,55.40
2019-04-20T06:40:07.792Z,54.00
2019-04-20T06:42:23.122Z,54.40
2019-04-20T06:45:02.214Z,54.40
2019-04-20T06:47:29.428Z,52.30
2019-04-20T06:49:56.764Z,52.20
2019-04-20T06:52:49.179Z,52.60
2019-04-20T06:55:15.735Z,54.00
2019-04-20T07:00:15.370Z,51.50
2019-04-20T07:05:21.271Z,50.80
2019-04-20T07:07:47.568Z,50.10
2019-04-20T07:10:23.041Z,50.50
2019-04-20T07:12:43.624Z,49.90
2019-04-20T07:15:17.484Z,48.90
2019-04-20T07:17:56.147Z,48.30
2019-04-20T07:20:15.486Z,47.20
2019-04-20T07:22:54.318Z,48.10
2019-04-20T07:25:24.470Z,46.60
2019-04-20T07:27:53.624Z,46.10
2019-04-20T07:30:24.153Z,46.20
2019-04-20T07:33:04.272Z,46.10
2019-04-20T07:38:21.042Z,48.70
2019-04-20T07:40:34.741Z,48.20
2019-04-20T07:42:58.970Z,46.00
2019-04-20T07:45:33.536Z,46.30
2019-04-20T07:48:07.430Z,43.50
2019-04-20T07:50:25.144Z,43.90
2019-04-20T07:53:13.678Z,42.60
2019-04-20T07:55:50.779Z,42.00
2019-04-20T07:58:10.118Z,41.40
2019-04-20T08:00:57.743Z,42.50
2019-04-20T08:03:39.674Z,41.50
2019-04-20T08:06:06.802Z,42.10
2019-04-20T08:11:21.122Z,45.00
2019-04-20T08:13:59.016Z,44.00
2019-04-20T08:22:23.135Z,43.40
2019-04-20T08:24:46.372Z,43.10
2019-04-20T08:27:03.839Z,41.70
2019-04-20T08:29:45.786Z,41.80
2019-04-20T08:32:23.107Z,43.10
2019-04-20T08:34:59.110Z,43.70
2019-04-20T08:37:20.672Z,43.10
2019-04-20T08:40:01.541Z,42.00
2019-04-20T08:42:33.262Z,42.20
2019-04-20T08:47:40.780Z,41.70
2019-04-20T08:50:15.917Z,43.20
2019-04-20T08:53:07.184Z,43.30
2019-04-20T08:55:09.190Z,42.60
2019-04-20T08:57:22.501Z,41.60
2019-04-20T08:59:52.669Z,40.50
2019-04-20T09:02:22.090Z,40.90
2019-04-20T09:04:58.260Z,39.60
2019-04-20T09:07:25.165Z,38.80
2019-04-20T09:10:22.220Z,39.20
2019-04-20T09:12:40.535Z,40.00
2019-04-20T09:14:53.069Z,39.70
2019-04-20T09:17:34.756Z,39.90
2019-04-20T09:20:04.738Z,39.50
2019-04-20T09:22:40.268Z,40.00
2019-04-20T09:25:48.775Z,39.90
2019-04-20T09:27:40.604Z,39.00
2019-04-20T09:30:21.386Z,38.30
2019-04-20T09:33:06.645Z,38.10
2019-04-20T09:35:34.064Z,39.20
2019-04-20T09:38:09.284Z,39.40
2019-04-20T09:40:35.324Z,39.20
2019-04-20T09:42:52.451Z,39.90
2019-04-20T09:45:30.988Z,40.10
2019-04-20T09:47:55.348Z,38.00
2019-04-20T09:50:43.797Z,39.40
2019-04-20T09:53:10.452Z,39.60
2019-04-20T09:55:38.276Z,41.70
2019-04-20T09:58:08.642Z,39.30
2019-04-20T10:00:42.203Z,37.90
2019-04-20T10:03:00.220Z,38.70
2019-04-20T10:05:29.559Z,38.10
2019-04-20T10:08:01.175Z,38.70
2019-04-20T10:10:38.883Z,36.40
2019-04-20T10:13:00.689Z,36.20
2019-04-20T10:15:33.745Z,35.70
2019-04-20T10:18:03.751Z,36.80
2019-04-20T10:20:35.178Z,35.90
2019-04-20T10:23:08.796Z,35.30
2019-04-20T10:25:38.405Z,35.80
2019-04-20T10:28:07.636Z,37.60
2019-04-20T10:30:36.730Z,33.90
2019-04-20T10:33:05.831Z,33.70
2019-04-20T10:35:35.826Z,34.80
2019-04-20T10:38:09.612Z,36.50
2019-04-20T10:40:50.768Z,34.90
2019-04-20T10:43:10.190Z,34.00
2019-04-20T10:45:39.202Z,34.40
2019-04-20T10:48:10.927Z,32.20
2019-04-20T10:50:40.911Z,35.90
2019-04-20T10:53:12.118Z,34.20
2019-04-20T10:55:39.851Z,33.60
2019-04-20T10:58:09.351Z,32.30
2019-04-20T11:00:41.804Z,30.60
2019-04-20T11:03:13.547Z,30.90
2019-04-20T11:05:42.930Z,31.60
2019-04-20T11:08:12.866Z,31.40
2019-04-20T11:10:55.559Z,29.90
2019-04-20T11:13:13.033Z,28.70
2019-04-20T11:15:42.226Z,28.10
2019-04-20T11:18:11.391Z,31.10
2019-04-20T11:20:41.392Z,29.40
2019-04-20T11:23:13.991Z,28.60
2019-04-20T11:25:44.261Z,27.30
2019-04-20T11:28:20.188Z,24.70
2019-04-20T11:30:50.088Z,26.10
2019-04-20T11:33:20.367Z,26.70
2019-04-20T11:35:49.955Z,26.60
2019-04-20T11:38:19.723Z,27.40
2019-04-20T11:41:01.618Z,25.70
2019-04-20T11:43:21.811Z,25.80
2019-04-20T11:45:52.504Z,24.30
2019-04-20T11:48:21.342Z,23.70
2019-04-20T11:50:51.562Z,25.80
2019-04-20T11:53:25.173Z,25.10
2019-04-20T11:55:54.143Z,27.00
2019-04-20T11:58:23.838Z,24.80
2019-04-20T12:01:02.959Z,26.20
2019-04-20T12:03:35.321Z,27.10
2019-04-20T12:06:02.766Z,26.70
2019-04-20T12:08:29.265Z,24.30
2019-04-20T12:11:01.701Z,24.10
2019-04-20T12:13:29.044Z,25.90
2019-04-20T12:15:59.482Z,23.30
2019-04-20T12:18:32.002Z,23.70
2019-04-20T12:21:00.831Z,25.20
2019-04-20T12:23:30.920Z,23.40
2019-04-20T12:25:59.865Z,25.00
2019-04-20T12:28:40.339Z,24.60
2019-04-20T12:31:15.359Z,22.40
2019-04-20T12:33:40.144Z,23.70
2019-04-20T12:36:12.156Z,23.70
2019-04-20T12:39:41.083Z,24.20
2019-04-20T12:42:19.077Z,24.00
2019-04-20T12:44:48.086Z,23.10
2019-04-20T12:47:17.460Z,24.10
2019-04-20T12:49:47.570Z,24.60
2019-04-20T12:52:16.668Z,24.20
2019-04-20T12:54:46.796Z,24.40
2019-04-20T12:57:16.553Z,25.30
2019-04-20T12:59:46.982Z,24.90
2019-04-20T13:02:15.844Z,24.70
2019-04-20T13:04:45.708Z,24.90
2019-04-20T13:07:15.663Z,24.40
2019-04-20T13:09:50.740Z,26.10
2019-04-20T13:12:32.197Z,24.30
2019-04-20T13:15:18.259Z,26.20
2019-04-20T13:17:49.674Z,28.10
2019-04-20T13:20:18.285Z,25.70
2019-04-20T13:22:48.740Z,25.80
2019-04-20T13:25:18.793Z,25.50
2019-04-20T13:27:49.083Z,25.20
2019-04-20T13:30:19.396Z,25.00
2019-04-20T13:32:57.036Z,24.60
2019-04-20T13:35:20.557Z,24.70
2019-04-20T13:37:50.256Z,24.80
2019-04-20T13:40:19.728Z,25.30
2019-04-20T13:42:49.789Z,26.50
2019-04-20T13:45:19.237Z,24.50
2019-04-20T13:47:48.689Z,25.50
2019-04-20T13:50:18.100Z,25.90
2019-04-20T13:52:46.963Z,27.10
2019-04-20T13:55:16.903Z,25.90
2019-04-20T13:58:00.008Z,25.00
2019-04-20T14:00:50.323Z,27.00
2019-04-20T14:03:19.055Z,26.70
2019-04-20T14:05:48.783Z,25.00
2019-04-20T14:08:21.200Z,25.60
2019-04-20T14:10:51.254Z,27.20
2019-04-20T14:13:22.099Z,25.20
2019-04-20T14:15:51.270Z,25.10
2019-04-20T14:18:19.950Z,25.70
2019-04-20T14:20:49.968Z,26.70
2019-04-20T14:23:18.937Z,24.60
2019-04-20T14:25:49.134Z,27.80
2019-04-20T14:28:18.661Z,25.60
2019-04-20T14:30:47.898Z,27.00
2019-04-20T14:33:16.940Z,26.30
2019-04-20T14:35:47.013Z,26.80
2019-04-20T14:38:17.527Z,26.60
2019-04-20T14:40:46.723Z,26.90
2019-04-20T14:43:15.413Z,26.60
2019-04-20T14:45:47.059Z,28.30
2019-04-20T14:48:16.375Z,28.00
2019-04-20T14:51:25.742Z,26.40
2019-04-20T14:53:27.368Z,27.20
2019-04-20T14:56:07.373Z,26.50
2019-04-20T14:58:42.132Z,26.50
2019-04-20T15:01:40.924Z,26.60
2019-04-20T15:04:15.137Z,25.70
2019-04-20T15:06:40.264Z,26.50
2019-04-20T15:09:11.063Z,25.60
2019-04-20T15:11:44.605Z,26.80
2019-04-20T15:14:34.502Z,27.10
2019-04-20T15:16:52.885Z,26.20
2019-04-20T15:19:29.491Z,27.40
2019-04-20T15:22:09.374Z,26.70
2019-04-20T15:24:39.537Z,28.40
2019-04-20T15:27:10.144Z,27.50
2019-04-20T15:29:40.086Z,26.90
2019-04-20T15:32:10.153Z,28.30
2019-04-20T15:34:39.957Z,28.00
2019-04-20T15:37:09.900Z,27.40
2019-04-20T15:39:38.946Z,27.60
2019-04-20T15:42:09.690Z,28.20
2019-04-20T15:44:45.535Z,27.60
2019-04-20T15:47:13.132Z,28.60
2019-04-20T16:06:09.440Z,27.20
2019-04-20T16:08:39.784Z,27.80
2019-04-20T16:11:09.100Z,28.60
2019-04-20T16:13:41.953Z,28.40
2019-04-20T16:16:09.794Z,29.90
2019-04-20T16:18:39.136Z,29.70
2019-04-20T16:21:14.114Z,31.30
2019-04-20T16:23:40.813Z,29.50
2019-04-20T16:26:17.757Z,28.60
2019-04-20T16:28:47.953Z,28.80
2019-04-20T16:31:16.652Z,30.20
2019-04-20T16:33:46.475Z,30.70
2019-04-20T16:36:16.448Z,29.50
2019-04-20T16:38:45.642Z,30.30
2019-04-20T16:41:14.710Z,30.00
2019-04-20T16:43:45.023Z,29.70
2019-04-20T16:46:18.139Z,31.20
2019-04-20T16:48:44.359Z,31.00
2019-04-20T16:51:13.216Z,30.00
2019-04-20T16:53:41.867Z,29.20
2019-04-20T16:56:13.032Z,30.70
2019-04-20T16:58:44.075Z,30.80
2019-04-20T17:01:13.734Z,31.10
2019-04-20T17:03:51.917Z,32.50
2019-04-20T17:06:13.839Z,30.00
2019-04-20T17:08:44.436Z,31.00
2019-04-20T17:11:13.898Z,30.50
2019-04-20T17:13:49.209Z,32.10
2019-04-20T17:16:13.424Z,30.30
2019-04-20T17:18:43.668Z,30.00
2019-04-20T17:21:16.564Z,31.30
2019-04-20T17:23:43.940Z,30.50
2019-04-20T17:26:14.995Z,30.70
2019-04-20T17:28:45.242Z,31.10
2019-04-20T17:31:19.776Z,30.80
2019-04-20T17:34:01.526Z,31.00
2019-04-20T17:36:25.260Z,30.90
2019-04-20T17:38:54.989Z,30.80
2019-04-20T17:41:44.422Z,30.70
2019-04-20T17:44:09.662Z,30.10
2019-04-20T17:46:36.818Z,31.10
2019-04-20T17:49:09.527Z,31.10
2019-04-20T17:51:49.068Z,31.10
2019-04-20T17:54:11.171Z,30.60
2019-04-20T17:56:42.516Z,30.70
2019-04-20T17:59:12.479Z,30.50
2019-04-20T18:02:11.945Z,31.10
2019-04-20T18:05:00.958Z,30.60
2019-04-20T18:07:31.201Z,31.90
2019-04-20T18:09:58.921Z,31.40
2019-04-20T18:12:15.497Z,32.30
2019-04-20T18:14:53.485Z,32.30
2019-04-20T18:17:32.083Z,32.00
2019-04-20T18:20:09.350Z,32.40
2019-04-20T18:22:43.289Z,32.90
2019-04-20T18:25:28.788Z,33.00
2019-04-20T18:27:57.336Z,33.70
2019-04-20T18:30:27.537Z,34.00
2019-04-20T18:32:45.299Z,34.50
2019-04-20T18:35:20.177Z,34.20
2019-04-20T18:37:52.513Z,34.60
2019-04-20T18:40:31.700Z,35.40
2019-04-20T18:43:00.019Z,35.60
2019-04-20T18:45:33.659Z,35.70
2019-04-20T18:48:11.698Z,35.70
2019-04-20T18:50:27.344Z,36.20
2019-04-20T18:52:51.735Z,36.30
2019-04-20T18:55:31.236Z,36.10
2019-04-20T18:57:51.061Z,36.50
2019-04-20T19:00:27.993Z,36.80
2019-04-20T19:02:56.096Z,37.60
2019-04-20T19:05:24.043Z,37.60
2019-04-20T19:07:59.870Z,37.60
2019-04-20T19:10:29.102Z,38.00
2019-04-20T19:12:59.882Z,38.00
2019-04-20T19:15:49.471Z,38.20
2019-04-20T19:18:22.408Z,38.40
2019-04-20T19:20:41.266Z,38.40
2019-04-20T19:23:10.533Z,38.80
2019-04-20T19:25:42.365Z,39.30
2019-04-20T19:28:10.654Z,39.30
2019-04-20T19:30:47.029Z,39.50
2019-04-20T19:33:30.077Z,39.80
2019-04-20T19:35:52.162Z,39.50
2019-04-20T19:38:19.920Z,39.70
2019-04-20T19:40:53.872Z,40.30
2019-04-20T19:43:22.359Z,40.40
2019-04-20T19:46:16.629Z,40.50
2019-04-20T19:48:28.107Z,40.90
2019-04-20T19:51:12.964Z,40.90
2019-04-20T19:53:37.724Z,40.90
2019-04-20T19:55:59.034Z,41.50
2019-04-20T19:58:33.435Z,41.60
2019-04-20T20:00:54.233Z,41.70
2019-04-20T20:03:25.892Z,42.10
2019-04-20T20:05:58.258Z,42.90
2019-04-20T20:08:29.950Z,43.10
2019-04-20T20:11:00.878Z,43.30
2019-04-20T20:13:33.246Z,43.30
2019-04-20T20:16:09.020Z,43.90
2019-04-20T20:18:39.265Z,44.10
2019-04-20T20:21:12.721Z,44.00
2019-04-20T20:23:30.001Z,44.40
2019-04-20T20:26:05.074Z,44.70
2019-04-20T20:28:40.116Z,45.20
2019-04-20T20:31:16.276Z,45.10
2019-04-20T20:33:52.057Z,45.40
2019-04-20T20:36:11.556Z,44.90
2019-04-20T20:38:40.031Z,45.20
2019-04-20T20:41:17.381Z,45.40
2019-04-20T20:43:51.061Z,46.00
2019-04-20T20:46:19.463Z,46.30
2019-04-20T20:49:06.246Z,46.80
2019-04-20T20:51:35.775Z,47.20
2019-04-20T20:53:50.976Z,47.40
2019-04-20T20:56:21.505Z,47.20
2019-04-20T20:58:55.024Z,47.60
2019-04-20T21:01:18.460Z,48.20
2019-04-20T21:03:46.939Z,48.10
2019-04-20T21:06:15.540Z,48.50
2019-04-20T21:08:48.708Z,48.80
2019-04-20T21:11:21.617Z,49.10
2019-04-20T21:13:47.291Z,49.50
2019-04-20T21:16:20.343Z,49.50
2019-04-20T21:19:03.235Z,49.80
2019-04-20T21:21:27.716Z,49.80
2019-04-20T21:23:56.716Z,50.50
2019-04-20T21:26:27.107Z,50.60
2019-04-20T21:28:50.301Z,50.80
2019-04-20T21:31:24.256Z,51.40
2019-04-20T21:33:49.188Z,51.10
2019-04-20T21:36:21.451Z,51.40
2019-04-20T21:38:48.711Z,51.90
2019-04-20T21:41:20.584Z,52.70
2019-04-20T21:43:49.859Z,53.20
2019-04-20T21:46:18.791Z,53.50
2019-04-20T21:49:00.691Z,53.70
2019-04-20T21:51:30.535Z,53.50
2019-04-20T21:53:48.371Z,53.50
2019-04-20T21:56:17.724Z,53.30
2019-04-20T21:58:52.535Z,53.30
2019-04-20T22:01:28.023Z,53.40
2019-04-20T22:03:48.148Z,53.40
2019-04-20T22:06:18.346Z,53.10
2019-04-20T22:08:53.090Z,53.40
2019-04-20T22:11:17.838Z,53.50
2019-04-20T22:13:49.131Z,53.20
2019-04-20T22:16:18.586Z,52.70
2019-04-20T22:18:54.422Z,52.30
2019-04-20T22:21:27.849Z,52.50
2019-04-20T22:24:05.540Z,52.50
2019-04-20T22:26:30.050Z,52.20
2019-04-20T22:28:50.145Z,52.20
2019-04-20T22:31:20.242Z,51.40
2019-04-20T22:33:50.459Z,51.40
2019-04-20T22:36:20.208Z,51.10
2019-04-20T22:39:09.645Z,51.80
2019-04-20T22:41:40.809Z,51.90
2019-04-20T22:44:15.448Z,50.60
2019-04-20T22:46:42.166Z,50.50
2019-04-20T22:49:26.607Z,51.20
2019-04-20T22:51:51.976Z,50.90
2019-04-20T22:54:32.638Z,50.80
2019-04-20T22:56:55.096Z,50.60
2019-04-20T22:59:16.497Z,50.20
2019-04-20T23:01:49.889Z,50.50
2019-04-20T23:04:12.846Z,51.00
2019-04-20T23:06:47.718Z,51.10
2019-04-20T23:09:14.748Z,51.20
2019-04-20T23:11:42.436Z,50.50
2019-04-20T23:14:11.188Z,50.70
2019-04-20T23:16:43.920Z,50.50
2019-04-20T23:19:10.247Z,50.40
2019-04-20T23:21:40.957Z,50.70
2019-04-20T23:24:10.065Z,50.60
2019-04-20T23:26:42.135Z,51.10
2019-04-20T23:29:11.172Z,51.20
2019-04-20T23:31:49.304Z,51.00
2019-04-20T23:34:18.639Z,51.50
2019-04-20T23:36:45.171Z,51.50
2019-04-20T23:39:12.861Z,50.90
2019-04-20T23:41:49.900Z,50.90
2019-04-20T23:44:16.944Z,51.40
2019-04-20T23:46:45.518Z,50.80
2019-04-20T23:49:29.542Z,51.10
2019-04-20T23:52:21.570Z,51.20
2019-04-20T23:54:27.921Z,51.50
2019-04-20T23:56:55.644Z,51.10
2019-04-20T23:59:27.661Z,51.00
